^^
Grace C. Lehan Memorial Weather Station Historical Data
Daily Summary for May 29, 2021 Units:  Both    English   Metric
Daily Weekly Monthly Yearly
  High: Low: Average:
Temperature: 99.6 °F /  37.6 °C 75.4 °F /  24.1 °C 83.9 °F /  28.8 °C
Dew Point: 79.5 °F /  26.4 °C 71.5 °F /  21.9 °C 74.8 °F /  23.8 °C
Humidity: 94% 46% 76%
Wind Speed: 6.2mph /  10km/h - 0.4mph /  0.6km/h
Wind Gust: 25mph /  40.2km/h - -
Wind- - WSW
Pressure: 30.15 in /  1020.9 hPa 30.01 in /  1016.1 hPa -
Precipitation: 0.23 in /  5.84 mm    
 
 
Tabular Data for May 29, 2021
Time Temperature Dew Point Pressure Wind Wind Speed Wind Gust Humidity Rainfall Rate (Hourly) solar
00:00 79.2 °F /  26.2 °C 72.9 °F /  22.7 °C 30.13in /  1020.2hPa Calm     81% 0.00in /  0mm 0 W/m2
00:09 79.1 °F /  26.2 °C 72.7 °F /  22.6 °C 30.13in /  1020.2hPa Calm     81% 0.00in /  0mm 0 W/m2
00:14 79 °F /  26.1 °C 72.6 °F /  22.6 °C 30.13in /  1020.2hPa Calm     81% 0.00in /  0mm 0 W/m2
00:19 78.9 °F /  26.1 °C 72.5 °F /  22.5 °C 30.13in /  1020.2hPa Calm     81% 0.00in /  0mm 0 W/m2
00:24 78.7 °F /  25.9 °C 72.5 °F /  22.5 °C 30.13in /  1020.2hPa Calm     81.3% 0.00in /  0mm 0 W/m2
00:29 78.6 °F /  25.9 °C 72.7 °F /  22.6 °C 30.12in /  1019.9hPa Calm     82% 0.00in /  0mm 0 W/m2
00:34 78.5 °F /  25.8 °C 72.6 °F /  22.6 °C 30.13in /  1020.2hPa Calm     82% 0.00in /  0mm 0 W/m2
00:39 78.5 °F /  25.8 °C 72.5 °F /  22.5 °C 30.12in /  1019.9hPa Calm     82% 0.00in /  0mm 0 W/m2
00:44 78.4 °F /  25.8 °C 72.4 °F /  22.4 °C 30.13in /  1020.2hPa Calm     82% 0.00in /  0mm 0 W/m2
00:49 78.3 °F /  25.7 °C 72.3 °F /  22.4 °C 30.13in /  1020.2hPa Calm     82% 0.00in /  0mm 0 W/m2
00:54 78.2 °F /  25.7 °C 72.2 °F /  22.3 °C 30.13in /  1020.2hPa Calm     82% 0.00in /  0mm 0 W/m2
00:59 78.1 °F /  25.6 °C 72.2 °F /  22.3 °C 30.13in /  1020.2hPa Calm     82.2% 0.00in /  0mm 0 W/m2
01:04 78 °F /  25.6 °C 72.4 °F /  22.4 °C 30.13in /  1020.2hPa Calm     83% 0.00in /  0mm 0 W/m2
01:09 77.9 °F /  25.5 °C 72.3 °F /  22.4 °C 30.13in /  1020.2hPa Calm     83% 0.00in /  0mm 0 W/m2
01:14 77.8 °F /  25.4 °C 72.2 °F /  22.3 °C 30.13in /  1020.2hPa Calm     83% 0.00in /  0mm 0 W/m2
01:19 77.7 °F /  25.4 °C 72.1 °F /  22.3 °C 30.13in /  1020.2hPa Calm     83% 0.00in /  0mm 0 W/m2
01:24 77.6 °F /  25.3 °C 72 °F /  22.2 °C 30.13in /  1020.2hPa Calm     83% 0.00in /  0mm 0 W/m2
01:29 77.5 °F /  25.3 °C 72.3 °F /  22.4 °C 30.13in /  1020.2hPa Calm     84% 0.00in /  0mm 0 W/m2
01:34 77.4 °F /  25.2 °C 72.2 °F /  22.3 °C 30.13in /  1020.2hPa Calm     84% 0.00in /  0mm 0 W/m2
01:39 77.4 °F /  25.2 °C 72.2 °F /  22.3 °C 30.13in /  1020.2hPa Calm     84% 0.00in /  0mm 0 W/m2
01:44 77.3 °F /  25.2 °C 72.2 °F /  22.3 °C 30.13in /  1020.2hPa Calm     84.3% 0.00in /  0mm 0 W/m2
01:49 77.2 °F /  25.1 °C 72.4 °F /  22.4 °C 30.13in /  1020.2hPa Calm     85% 0.00in /  0mm 0 W/m2
01:54 77.2 °F /  25.1 °C 72.3 °F /  22.4 °C 30.13in /  1020.2hPa Calm     85% 0.00in /  0mm 0 W/m2
01:59 77.1 °F /  25.1 °C 72.3 °F /  22.4 °C 30.12in /  1019.9hPa Calm     85% 0.00in /  0mm 0 W/m2
02:04 77.1 °F /  25.1 °C 72.2 °F /  22.3 °C 30.12in /  1019.9hPa Calm     85% 0.00in /  0mm 0 W/m2
02:09 77 °F /  25 °C 72.2 °F /  22.3 °C 30.12in /  1019.9hPa Calm     85% 0.00in /  0mm 0 W/m2
02:14 77 °F /  25 °C 72.2 °F /  22.3 °C 30.12in /  1019.9hPa Calm     85% 0.00in /  0mm 0 W/m2
02:19 77 °F /  25 °C 72.1 °F /  22.3 °C 30.12in /  1019.9hPa Calm     85% 0.00in /  0mm 0 W/m2
02:24 76.9 °F /  24.9 °C 72.1 °F /  22.3 °C 30.12in /  1019.9hPa Calm     85% 0.00in /  0mm 0 W/m2
02:29 76.9 °F /  24.9 °C 72.1 °F /  22.3 °C 30.12in /  1019.9hPa Calm     85% 0.00in /  0mm 0 W/m2
02:34 76.8 °F /  24.9 °C 72 °F /  22.2 °C 30.12in /  1019.9hPa Calm     85% 0.00in /  0mm 0 W/m2
02:39 76.8 °F /  24.9 °C 71.9 °F /  22.2 °C 30.12in /  1019.9hPa Calm     85% 0.00in /  0mm 0 W/m2
02:44 76.8 °F /  24.9 °C 72 °F /  22.2 °C 30.12in /  1019.9hPa Calm     85% 0.00in /  0mm 0 W/m2
02:49 76.8 °F /  24.9 °C 71.9 °F /  22.2 °C 30.12in /  1019.9hPa Calm     85% 0.00in /  0mm 0 W/m2
02:54 76.8 °F /  24.9 °C 71.9 °F /  22.2 °C 30.12in /  1019.9hPa Calm     85% 0.00in /  0mm 0 W/m2
02:59 76.8 °F /  24.9 °C 71.9 °F /  22.2 °C 30.12in /  1019.9hPa Calm     85% 0.00in /  0mm 0 W/m2
03:04 76.7 °F /  24.8 °C 71.9 °F /  22.2 °C 30.12in /  1019.9hPa Calm     85% 0.00in /  0mm 0 W/m2
03:09 76.7 °F /  24.8 °C 71.9 °F /  22.2 °C 30.12in /  1019.9hPa Calm     85% 0.00in /  0mm 0 W/m2
03:14 76.6 °F /  24.8 °C 71.8 °F /  22.1 °C 30.12in /  1019.9hPa Calm     85.2% 0.00in /  0mm 0 W/m2
03:19 76.5 °F /  24.7 °C 72 °F /  22.2 °C 30.12in /  1019.9hPa Calm     86% 0.00in /  0mm 0 W/m2
03:24 76.4 °F /  24.7 °C 71.9 °F /  22.2 °C 30.12in /  1019.9hPa Calm     86% 0.00in /  0mm 0 W/m2
03:29 76.3 °F /  24.6 °C 71.8 °F /  22.1 °C 30.12in /  1019.9hPa Calm     86% 0.00in /  0mm 0 W/m2
03:34 76.2 °F /  24.6 °C 71.7 °F /  22.1 °C 30.12in /  1019.9hPa Calm     86% 0.00in /  0mm 0 W/m2
03:39 76.1 °F /  24.5 °C 71.7 °F /  22.1 °C 30.12in /  1019.9hPa Calm     86% 0.00in /  0mm 0 W/m2
03:44 76.1 °F /  24.5 °C 71.6 °F /  22 °C 30.12in /  1019.9hPa Calm     86% 0.00in /  0mm 0 W/m2
03:49 76 °F /  24.4 °C 71.5 °F /  21.9 °C 30.12in /  1019.9hPa Calm     86% 0.00in /  0mm 0 W/m2
03:54 75.9 °F /  24.4 °C 71.7 °F /  22.1 °C 30.12in /  1019.9hPa Calm     86.9% 0.00in /  0mm 0 W/m2
03:59 75.9 °F /  24.4 °C 71.7 °F /  22.1 °C 30.12in /  1019.9hPa Calm     87% 0.00in /  0mm 0 W/m2
04:04 75.8 °F /  24.3 °C 71.7 °F /  22.1 °C 30.12in /  1019.9hPa Calm     87% 0.00in /  0mm 0 W/m2
04:09 75.8 °F /  24.3 °C 71.7 °F /  22.1 °C 30.12in /  1019.9hPa Calm     87% 0.00in /  0mm 0 W/m2
04:14 75.7 °F /  24.3 °C 71.6 °F /  22 °C 30.12in /  1019.9hPa Calm     87% 0.00in /  0mm 0 W/m2
04:19 75.7 °F /  24.3 °C 71.6 °F /  22 °C 30.12in /  1019.9hPa Calm     87% 0.00in /  0mm 0 W/m2
04:24 75.7 °F /  24.3 °C 71.6 °F /  22 °C 30.12in /  1019.9hPa Calm     87% 0.00in /  0mm 0 W/m2
04:29 75.7 °F /  24.3 °C 71.6 °F /  22 °C 30.12in /  1019.9hPa Calm     87% 0.00in /  0mm 0 W/m2
04:34 75.7 °F /  24.3 °C 71.6 °F /  22 °C 30.13in /  1020.2hPa Calm     87.1% 0.00in /  0mm 0 W/m2
04:39 75.6 °F /  24.2 °C 71.8 °F /  22.1 °C 30.13in /  1020.2hPa Calm     88% 0.00in /  0mm 0 W/m2
04:44 75.6 °F /  24.2 °C 71.8 °F /  22.1 °C 30.13in /  1020.2hPa Calm     88% 0.00in /  0mm 0 W/m2
04:49 75.5 °F /  24.2 °C 71.7 °F /  22.1 °C 30.13in /  1020.2hPa Calm     88% 0.00in /  0mm 0 W/m2
04:54 75.5 °F /  24.2 °C 71.7 °F /  22.1 °C 30.13in /  1020.2hPa Calm     88% 0.00in /  0mm 0 W/m2
04:59 75.5 °F /  24.2 °C 71.7 °F /  22.1 °C 30.14in /  1020.5hPa Calm     88% 0.00in /  0mm 0 W/m2
05:04 75.4 °F /  24.1 °C 71.6 °F /  22 °C 30.14in /  1020.5hPa Calm     88% 0.00in /  0mm 0 W/m2
05:09 75.4 °F /  24.1 °C 71.6 °F /  22 °C 30.14in /  1020.5hPa Calm     88% 0.00in /  0mm 0 W/m2
05:14 75.4 °F /  24.1 °C 71.6 °F /  22 °C 30.14in /  1020.5hPa Calm     88% 0.00in /  0mm 0 W/m2
05:19 75.4 °F /  24.1 °C 71.6 °F /  22 °C 30.14in /  1020.5hPa Calm     88% 0.00in /  0mm 0 W/m2
05:24 75.4 °F /  24.1 °C 71.6 °F /  22 °C 30.14in /  1020.5hPa Calm     88% 0.00in /  0mm 0 W/m2
05:29 75.4 °F /  24.1 °C 71.6 °F /  22 °C 30.14in /  1020.5hPa Calm     88% 0.00in /  0mm 5 W/m2
05:34 75.4 °F /  24.1 °C 71.6 °F /  22 °C 30.14in /  1020.5hPa Calm     88% 0.00in /  0mm 5 W/m2
05:39 75.4 °F /  24.1 °C 71.7 °F /  22.1 °C 30.14in /  1020.5hPa Calm     88.3% 0.00in /  0mm 9 W/m2
05:44 75.4 °F /  24.1 °C 71.8 °F /  22.1 °C 30.14in /  1020.5hPa Calm     88.5% 0.00in /  0mm 11 W/m2
05:49 75.5 °F /  24.2 °C 72 °F /  22.2 °C 30.14in /  1020.5hPa Calm     89% 0.00in /  0mm 12 W/m2
05:54 75.5 °F /  24.2 °C 72 °F /  22.2 °C 30.14in /  1020.5hPa Calm     89% 0.00in /  0mm 14 W/m2
05:59 75.6 °F /  24.2 °C 72.1 °F /  22.3 °C 30.14in /  1020.5hPa Calm     89% 0.00in /  0mm 18 W/m2
06:04 75.6 °F /  24.2 °C 72.1 °F /  22.3 °C 30.14in /  1020.5hPa Calm     89% 0.00in /  0mm 19 W/m2
06:09 75.7 °F /  24.3 °C 72.3 °F /  22.4 °C 30.14in /  1020.5hPa Calm     89% 0.00in /  0mm 21 W/m2
06:14 75.9 °F /  24.4 °C 72.4 °F /  22.4 °C 30.14in /  1020.5hPa Calm     89% 0.00in /  0mm 23 W/m2
06:19 76 °F /  24.4 °C 72.5 °F /  22.5 °C 30.14in /  1020.5hPa Calm     88.9% 0.00in /  0mm 26 W/m2
06:24 76.2 °F /  24.6 °C 72.4 °F /  22.4 °C 30.15in /  1020.9hPa Calm     88.1% 0.00in /  0mm 28 W/m2
06:29 76.3 °F /  24.6 °C 72.7 °F /  22.6 °C 30.15in /  1020.9hPa Calm     88.5% 0.00in /  0mm 33 W/m2
06:34 76.5 °F /  24.7 °C 72.7 °F /  22.6 °C 30.15in /  1020.9hPa Calm     88% 0.00in /  0mm 40 W/m2
06:39 76.8 °F /  24.9 °C 73 °F /  22.8 °C 30.15in /  1020.9hPa Calm     88% 0.00in /  0mm 47 W/m2
06:44 77 °F /  25 °C 73.2 °F /  22.9 °C 30.15in /  1020.9hPa Calm     88% 0.00in /  0mm 53 W/m2
06:49 77.5 °F /  25.3 °C 73.4 °F /  23 °C 30.15in /  1020.9hPa Calm     87.2% 0.00in /  0mm 62 W/m2
06:54 78.1 °F /  25.6 °C 73.8 °F /  23.2 °C 30.15in /  1020.9hPa Calm     86.7% 0.00in /  0mm 65 W/m2
06:59 78.9 °F /  26.1 °C 74 °F /  23.3 °C 30.15in /  1020.9hPa Calm     85.2% 0.00in /  0mm 69 W/m2
07:04 79.7 °F /  26.5 °C 74.2 °F /  23.4 °C 30.15in /  1020.9hPa Calm     83.4% 0.00in /  0mm 70 W/m2
07:09 80.6 °F /  27 °C 74.5 °F /  23.6 °C 30.15in /  1020.9hPa Calm     81.6% 0.00in /  0mm 84 W/m2
07:14 81.4 °F /  27.4 °C 74.8 °F /  23.8 °C 30.15in /  1020.9hPa Calm     80.3% 0.00in /  0mm 79 W/m2
07:19 82.1 °F /  27.8 °C 75.2 °F /  24 °C 30.15in /  1020.9hPa Calm     79.5% 0.00in /  0mm 77 W/m2
07:24 82.7 °F /  28.2 °C 75.2 °F /  24 °C 30.15in /  1020.9hPa Calm     78.2% 0.00in /  0mm 114 W/m2
07:29 83.3 °F /  28.5 °C 75.3 °F /  24.1 °C 30.15in /  1020.9hPa Calm     76.9% 0.00in /  0mm 285 W/m2
07:34 83.7 °F /  28.7 °C 75.6 °F /  24.2 °C 30.15in /  1020.9hPa Calm     76.6% 0.00in /  0mm 301 W/m2
07:39 84.3 °F /  29.1 °C 75.9 °F /  24.4 °C 30.15in /  1020.9hPa Calm     76.1% 0.00in /  0mm 315 W/m2
07:44 84.7 °F /  29.3 °C 75.8 °F /  24.3 °C 30.15in /  1020.9hPa Calm     74.7% 0.00in /  0mm 334 W/m2
07:49 85.2 °F /  29.6 °C 76 °F /  24.4 °C 30.15in /  1020.9hPa Calm     74% 0.00in /  0mm 352 W/m2
07:54 85.7 °F /  29.8 °C 76.2 °F /  24.6 °C 30.15in /  1020.9hPa Calm     73.3% 0.00in /  0mm 369 W/m2
07:59 86.2 °F /  30.1 °C 76.2 °F /  24.6 °C 30.15in /  1020.9hPa Calm     72.1% 0.00in /  0mm 383 W/m2
08:00 86.4 °F /  30.2 °C 76.7 °F /  24.8 °C 30.15in /  1020.9hPa Calm     73% 0.00in /  0mm 383 W/m2
08:09 86.9 °F /  30.5 °C 76.8 °F /  24.9 °C 30.15in /  1020.9hPa Calm     72% 0.00in /  0mm 408 W/m2
08:14 87.4 °F /  30.8 °C 77 °F /  25 °C 30.15in /  1020.9hPa Calm     71.3% 0.00in /  0mm 429 W/m2
08:19 87.9 °F /  31.1 °C 77.3 °F /  25.2 °C 30.15in /  1020.9hPa Calm     71% 0.00in /  0mm 469 W/m2
08:24 88.3 °F /  31.3 °C 77.3 °F /  25.2 °C 30.15in /  1020.9hPa Calm     69.9% 0.00in /  0mm 469 W/m2
08:29 88.5 °F /  31.4 °C 76.7 °F /  24.8 °C 30.15in /  1020.9hPa Calm     68.1% 0.00in /  0mm 476 W/m2
08:34 88.6 °F /  31.4 °C 77.2 °F /  25.1 °C 30.15in /  1020.9hPa Calm     69.3% 0.00in /  0mm 489 W/m2
08:39 89 °F /  31.7 °C 77.8 °F /  25.4 °C 30.15in /  1020.9hPa Calm     69.6% 0.00in /  0mm 504 W/m2
08:44 89.5 °F /  31.9 °C 77.8 °F /  25.4 °C 30.15in /  1020.9hPa Calm     68.5% 0.00in /  0mm 519 W/m2
08:49 90 °F /  32.2 °C 78.1 °F /  25.6 °C 30.15in /  1020.9hPa Calm     68.2% 0.00in /  0mm 529 W/m2
08:54 90.1 °F /  32.3 °C 77.1 °F /  25.1 °C 30.15in /  1020.9hPa Calm     65.8% 0.00in /  0mm 552 W/m2
08:59 90.2 °F /  32.3 °C 77.8 °F /  25.4 °C 30.14in /  1020.5hPa Calm     67% 0.00in /  0mm 561 W/m2
09:04 90.5 °F /  32.5 °C 77.7 °F /  25.4 °C 30.14in /  1020.5hPa Calm     66.4% 0.00in /  0mm 578 W/m2
09:09 90.8 °F /  32.7 °C 78.5 °F /  25.8 °C 30.14in /  1020.5hPa Calm     67.3% 0.00in /  0mm 594 W/m2
09:14 91.3 °F /  32.9 °C 78.4 °F /  25.8 °C 30.14in /  1020.5hPa Calm     66% 0.00in /  0mm 606 W/m2
09:19 91.7 °F /  33.2 °C 78.2 °F /  25.7 °C 30.14in /  1020.5hPa Calm     65% 0.00in /  0mm 622 W/m2
09:24 91.9 °F /  33.3 °C 78.2 °F /  25.7 °C 30.14in /  1020.5hPa Calm     64.5% 0.00in /  0mm 631 W/m2
09:29 92.1 °F /  33.4 °C 78.8 °F /  26 °C 30.14in /  1020.5hPa Calm     65.2% 0.00in /  0mm 649 W/m2
09:34 92.6 °F /  33.7 °C 78.8 °F /  26 °C 30.14in /  1020.5hPa Calm     64.4% 0.00in /  0mm 663 W/m2
09:39 92.8 °F /  33.8 °C 78.7 °F /  25.9 °C 30.14in /  1020.5hPa Calm     63.7% 0.00in /  0mm 673 W/m2
09:44 93 °F /  33.9 °C 78.5 °F /  25.8 °C 30.13in /  1020.2hPa Calm     62.9% 0.00in /  0mm 684 W/m2
09:49 93 °F /  33.9 °C 78.5 °F /  25.8 °C 30.13in /  1020.2hPa Calm     62.8% 0.00in /  0mm 696 W/m2
09:54 92.7 °F /  33.7 °C 78.6 °F /  25.9 °C 30.13in /  1020.2hPa Calm     63.8% 0.00in /  0mm 710 W/m2
09:59 93 °F /  33.9 °C 78.5 °F /  25.8 °C 30.13in /  1020.2hPa Calm     63% 0.00in /  0mm 724 W/m2
10:04 93.5 °F /  34.2 °C 78.2 °F /  25.7 °C 30.13in /  1020.2hPa Calm     61.3% 0.00in /  0mm 733 W/m2
10:09 93.9 °F /  34.4 °C 78.3 °F /  25.7 °C 30.13in /  1020.2hPa Calm     60.9% 0.00in /  0mm 744 W/m2
10:14 94.2 °F /  34.6 °C 78.3 °F /  25.7 °C 30.13in /  1020.2hPa Calm     60.3% 0.00in /  0mm 749 W/m2
10:19 94.4 °F /  34.7 °C 77.6 °F /  25.3 °C 30.13in /  1020.2hPa Calm     58.5% 0.00in /  0mm 759 W/m2
10:24 94.5 °F /  34.7 °C 78.4 °F /  25.8 °C 30.12in /  1019.9hPa West 1.8mph /  2.9km/h 7mph /  11.3km/h 59.9% 0.00in /  0mm 766 W/m2
10:29 94.9 °F /  34.9 °C 78.1 °F /  25.6 °C 30.12in /  1019.9hPa West 0.1mph /  0.2km/h 7mph /  11.3km/h 58.5% 0.00in /  0mm 777 W/m2
10:34 95.5 °F /  35.3 °C 79.5 °F /  26.4 °C 30.12in /  1019.9hPa WNW 0.6mph /  1km/h 7mph /  11.3km/h 60.1% 0.00in /  0mm 782 W/m2
10:39 96.1 °F /  35.6 °C 78.2 °F /  25.7 °C 30.12in /  1019.9hPa Calm   5mph /  8km/h 56.6% 0.00in /  0mm 789 W/m2
10:44 96.3 °F /  35.7 °C 78.1 °F /  25.6 °C 30.12in /  1019.9hPa WNW 0.2mph /  0.3km/h 5mph /  8km/h 56% 0.00in /  0mm 800 W/m2
10:49 96.5 °F /  35.8 °C 78.6 °F /  25.9 °C 30.12in /  1019.9hPa West 0.5mph /  0.8km/h 5mph /  8km/h 56.5% 0.00in /  0mm 809 W/m2
10:54 96.9 °F /  36.1 °C 79 °F /  26.1 °C 30.12in /  1019.9hPa West 1.5mph /  2.4km/h 9mph /  14.5km/h 56.7% 0.00in /  0mm 819 W/m2
10:59 97.2 °F /  36.2 °C 78.7 °F /  25.9 °C 30.12in /  1019.9hPa West 0.5mph /  0.8km/h 9mph /  14.5km/h 55.7% 0.00in /  0mm 828 W/m2
11:02 97.3 °F /  36.3 °C 78.5 °F /  25.8 °C 30.12in /  1019.9hPa West 0.3mph /  0.5km/h 9mph /  14.5km/h 55.1% 0.00in /  0mm 842 W/m2
11:30 98 °F /  36.7 °C 78 °F /  25.6 °C 30.11in /  1019.5hPa NW 2mph /  3.2km/h 10mph /  16.1km/h 53% 0.00in /  0mm 845 W/m2
12:04 97.7 °F /  36.5 °C 77.1 °F /  25.1 °C 30.10in /  1019.2hPa West 0.4mph /  0.6km/h 2mph /  3.2km/h 52% 0.00in /  0mm 918 W/m2
12:09 97.8 °F /  36.6 °C 76.7 °F /  24.8 °C 30.10in /  1019.2hPa West 0.6mph /  1km/h 3mph /  4.8km/h 51.1% 0.00in /  0mm 918 W/m2
12:10 97.9 °F /  36.6 °C 76.7 °F /  24.8 °C 30.10in /  1019.2hPa West 1.3mph /  2.1km/h 3mph /  4.8km/h 51% 0.00in /  0mm 916 W/m2
12:30 98.8 °F /  37.1 °C 75.1 °F /  23.9 °C 30.09in /  1018.8hPa West 1mph /  1.6km/h 6mph /  9.7km/h 47% 0.00in /  0mm 921 W/m2
13:00 99.2 °F /  37.3 °C 77.3 °F /  25.2 °C 30.08in /  1018.5hPa West 1mph /  1.6km/h 9mph /  14.5km/h 50% 0.00in /  0mm 947 W/m2
13:30 99.1 °F /  37.3 °C 74.7 °F /  23.7 °C 30.07in /  1018.2hPa West 2mph /  3.2km/h 6mph /  9.7km/h 46% 0.00in /  0mm 873 W/m2
14:30 99.4 °F /  37.4 °C 75 °F /  23.9 °C 30.06in /  1017.8hPa WSW 2mph /  3.2km/h 9mph /  14.5km/h 46% 0.00in /  0mm 919 W/m2
15:00 99.5 °F /  37.5 °C 75.7 °F /  24.3 °C 30.05in /  1017.5hPa WSW 2mph /  3.2km/h 13mph /  20.9km/h 47% 0.00in /  0mm 744 W/m2
15:30 99.6 °F /  37.6 °C 78.3 °F /  25.7 °C 30.05in /  1017.5hPa SW 2mph /  3.2km/h 10mph /  16.1km/h 51% 0.00in /  0mm 823 W/m2
16:04 99.2 °F /  37.3 °C 75 °F /  23.9 °C 30.04in /  1017.2hPa WSW 1.7mph /  2.7km/h 4mph /  6.4km/h 46.4% 0.00in /  0mm 113 W/m2
16:09 99 °F /  37.2 °C 75.2 °F /  24 °C 30.04in /  1017.2hPa SW 1.6mph /  2.6km/h 6mph /  9.7km/h 47% 0.00in /  0mm 684 W/m2
16:14 98.6 °F /  37 °C 75.4 °F /  24.1 °C 30.04in /  1017.2hPa WSW 1.5mph /  2.4km/h 6mph /  9.7km/h 47.9% 0.00in /  0mm 673 W/m2
16:19 98.4 °F /  36.9 °C 75.6 °F /  24.2 °C 30.03in /  1016.8hPa WNW 2.2mph /  3.5km/h 9mph /  14.5km/h 48.5% 0.00in /  0mm 633 W/m2
16:24 98.3 °F /  36.8 °C 75.6 °F /  24.2 °C 30.03in /  1016.8hPa WSW 2.2mph /  3.5km/h 9mph /  14.5km/h 48.5% 0.00in /  0mm 97 W/m2
16:29 98.2 °F /  36.8 °C 75.8 °F /  24.3 °C 30.03in /  1016.8hPa WSW 2mph /  3.2km/h 9mph /  14.5km/h 49% 0.00in /  0mm 86 W/m2
16:34 98 °F /  36.7 °C 75.1 °F /  23.9 °C 30.03in /  1016.8hPa WSW 2.3mph /  3.7km/h 9mph /  14.5km/h 48.2% 0.00in /  0mm 98 W/m2
16:39 97.9 °F /  36.6 °C 76.1 °F /  24.5 °C 30.03in /  1016.8hPa WSW 1.4mph /  2.3km/h 8mph /  12.9km/h 50% 0.00in /  0mm 98 W/m2
16:44 98 °F /  36.7 °C 75.7 °F /  24.3 °C 30.02in /  1016.5hPa WSW 1.8mph /  2.9km/h 8mph /  12.9km/h 49.2% 0.00in /  0mm 79 W/m2
16:49 97.9 °F /  36.6 °C 75.4 °F /  24.1 °C 30.02in /  1016.5hPa WSW 2mph /  3.2km/h 9mph /  14.5km/h 48.9% 0.00in /  0mm 114 W/m2
16:54 97.7 °F /  36.5 °C 74.8 °F /  23.8 °C 30.02in /  1016.5hPa SW 1.7mph /  2.7km/h 10mph /  16.1km/h 48.1% 0.00in /  0mm 127 W/m2
16:59 97.6 °F /  36.4 °C 75.1 °F /  23.9 °C 30.02in /  1016.5hPa WSW 2mph /  3.2km/h 10mph /  16.1km/h 48.9% 0.00in /  0mm 123 W/m2
17:04 97.7 °F /  36.5 °C 75.2 °F /  24 °C 30.02in /  1016.5hPa West 1.9mph /  3.1km/h 10mph /  16.1km/h 48.8% 0.00in /  0mm 90 W/m2
17:09 97.7 °F /  36.5 °C 75.6 °F /  24.2 °C 30.01in /  1016.1hPa WSW 1.3mph /  2.1km/h 6mph /  9.7km/h 49.4% 0.00in /  0mm 77 W/m2
17:14 97.7 °F /  36.5 °C 75.5 °F /  24.2 °C 30.01in /  1016.1hPa WSW 1.5mph /  2.4km/h 6mph /  9.7km/h 49.3% 0.00in /  0mm 77 W/m2
17:19 97.6 °F /  36.4 °C 75.2 °F /  24 °C 30.01in /  1016.1hPa SW 2.7mph /  4.3km/h 8mph /  12.9km/h 49.1% 0.00in /  0mm 77 W/m2
17:24 97.3 °F /  36.3 °C 74.4 °F /  23.6 °C 30.01in /  1016.1hPa SW 2.2mph /  3.5km/h 8mph /  12.9km/h 48% 0.00in /  0mm 65 W/m2
17:29 97.1 °F /  36.2 °C 74.6 °F /  23.7 °C 30.01in /  1016.1hPa SW 2.6mph /  4.2km/h 8mph /  12.9km/h 48.7% 0.00in /  0mm 90 W/m2
17:34 96.8 °F /  36 °C 74.7 °F /  23.7 °C 30.02in /  1016.5hPa WSW 3.4mph /  5.5km/h 9mph /  14.5km/h 49.3% 0.00in /  0mm 98 W/m2
17:39 96.6 °F /  35.9 °C 74.7 °F /  23.7 °C 30.02in /  1016.5hPa WSW 2.3mph /  3.7km/h 9mph /  14.5km/h 49.5% 0.00in /  0mm 109 W/m2
17:44 96.5 °F /  35.8 °C 74.2 °F /  23.4 °C 30.02in /  1016.5hPa SW 1.6mph /  2.6km/h 9mph /  14.5km/h 49% 0.00in /  0mm 127 W/m2
17:49 96.5 °F /  35.8 °C 74.9 °F /  23.8 °C 30.02in /  1016.5hPa SW 2mph /  3.2km/h 9mph /  14.5km/h 50.1% 0.00in /  0mm 128 W/m2
17:54 96.5 °F /  35.8 °C 74.6 °F /  23.7 °C 30.02in /  1016.5hPa WSW 1.7mph /  2.7km/h 9mph /  14.5km/h 49.7% 0.00in /  0mm 91 W/m2
17:59 96.5 °F /  35.8 °C 75.2 °F /  24 °C 30.02in /  1016.5hPa WSW 1.9mph /  3.1km/h 9mph /  14.5km/h 50.7% 0.00in /  0mm 83 W/m2
18:04 96.3 °F /  35.7 °C 74.9 °F /  23.8 °C 30.02in /  1016.5hPa WSW 1.7mph /  2.7km/h 9mph /  14.5km/h 50.5% 0.00in /  0mm 88 W/m2
18:09 96.1 °F /  35.6 °C 74.9 °F /  23.8 °C 30.02in /  1016.5hPa WSW 1.7mph /  2.7km/h 7mph /  11.3km/h 50.8% 0.00in /  0mm 63 W/m2
18:14 95.8 °F /  35.4 °C 74.8 °F /  23.8 °C 30.02in /  1016.5hPa SW 1.6mph /  2.6km/h 7mph /  11.3km/h 51% 0.00in /  0mm 39 W/m2
18:19 95.3 °F /  35.2 °C 76.9 °F /  24.9 °C 30.02in /  1016.5hPa SW 2.3mph /  3.7km/h 7mph /  11.3km/h 55.7% 0.00in /  0mm 18 W/m2
18:24 94.5 °F /  34.7 °C 77.3 °F /  25.2 °C 30.02in /  1016.5hPa SW 1.4mph /  2.3km/h 7mph /  11.3km/h 57.6% 0.00in /  0mm 16 W/m2
18:29 93.8 °F /  34.3 °C 77.4 °F /  25.2 °C 30.01in /  1016.1hPa SW 1.3mph /  2.1km/h 7mph /  11.3km/h 59.1% 0.00in /  0mm 14 W/m2
18:34 93.1 °F /  33.9 °C 77.4 °F /  25.2 °C 30.02in /  1016.5hPa SW 0.1mph /  0.2km/h 7mph /  11.3km/h 60.5% 0.00in /  0mm 12 W/m2
18:39 92.6 °F /  33.7 °C 77.6 °F /  25.3 °C 30.02in /  1016.5hPa SSW 0.2mph /  0.3km/h 4mph /  6.4km/h 61.8% 0.00in /  0mm 12 W/m2
18:44 92.2 °F /  33.4 °C 77.5 °F /  25.3 °C 30.02in /  1016.5hPa SW 0.5mph /  0.8km/h 6mph /  9.7km/h 62.5% 0.00in /  0mm 14 W/m2
18:49 91.8 °F /  33.2 °C 77.5 °F /  25.3 °C 30.02in /  1016.5hPa SW 2mph /  3.2km/h 6mph /  9.7km/h 63.1% 0.00in /  0mm 16 W/m2
18:54 91.4 °F /  33 °C 77.4 °F /  25.2 °C 30.03in /  1016.8hPa WSW 1.6mph /  2.6km/h 7mph /  11.3km/h 63.6% 0.00in /  0mm 25 W/m2
18:59 91.2 °F /  32.9 °C 77.3 °F /  25.2 °C 30.03in /  1016.8hPa SW 1.1mph /  1.8km/h 7mph /  11.3km/h 64.1% 0.00in /  0mm 25 W/m2
19:04 91 °F /  32.8 °C 77.6 °F /  25.3 °C 30.04in /  1017.2hPa WSW 2.8mph /  4.5km/h 12mph /  19.3km/h 65% 0.00in /  0mm 19 W/m2
19:09 90.7 °F /  32.6 °C 75.8 °F /  24.3 °C 30.04in /  1017.2hPa SW 6.2mph /  10km/h 25mph /  40.2km/h 62% 0.00in /  0mm 44 W/m2
19:14 89.2 °F /  31.8 °C 75 °F /  23.9 °C 30.06in /  1017.8hPa SW 4.2mph /  6.8km/h 25mph /  40.2km/h 63.1% 0.15in /  3.81mm 79 W/m2
19:19 86.1 °F /  30.1 °C 75 °F /  23.9 °C 30.05in /  1017.5hPa SSW 0.8mph /  1.3km/h 25mph /  40.2km/h 69.7% 0.22in /  5.59mm 155 W/m2
19:24 83.7 °F /  28.7 °C 75 °F /  23.9 °C 30.05in /  1017.5hPa Calm   25mph /  40.2km/h 75.3% 0.22in /  5.59mm 155 W/m2
19:29 82.3 °F /  27.9 °C 75.5 °F /  24.2 °C 30.05in /  1017.5hPa Calm   25mph /  40.2km/h 79.9% 0.22in /  5.59mm 118 W/m2
19:34 81.5 °F /  27.5 °C 76 °F /  24.4 °C 30.05in /  1017.5hPa Calm   25mph /  40.2km/h 83.6% 0.22in /  5.59mm 120 W/m2
19:39 80.8 °F /  27.1 °C 75.9 °F /  24.4 °C 30.05in /  1017.5hPa Calm     85% 0.22in /  5.59mm 111 W/m2
19:44 80.2 °F /  26.8 °C 75.6 °F /  24.2 °C 30.05in /  1017.5hPa Calm     85.9% 0.22in /  5.59mm 109 W/m2
19:49 79.9 °F /  26.6 °C 76 °F /  24.4 °C 30.06in /  1017.8hPa South 1.1mph /  1.8km/h 4mph /  6.4km/h 87.9% 0.22in /  5.59mm 70 W/m2
19:54 79.5 °F /  26.4 °C 75.6 °F /  24.2 °C 30.06in /  1017.8hPa North 0.3mph /  0.5km/h 6mph /  9.7km/h 87.8% 0.22in /  5.59mm 40 W/m2
19:59 79.2 °F /  26.2 °C 75.4 °F /  24.1 °C 30.07in /  1018.2hPa ENE 0.3mph /  0.5km/h 6mph /  9.7km/h 88% 0.22in /  5.59mm 9 W/m2
20:04 79 °F /  26.1 °C 75.5 °F /  24.2 °C 30.07in /  1018.2hPa Calm     89% 0.22in /  5.59mm 7 W/m2
20:09 79 °F /  26.1 °C 75.4 °F /  24.1 °C 30.08in /  1018.5hPa Calm     89% 0.22in /  5.59mm 7 W/m2
20:14 78.8 °F /  26 °C 75.3 °F /  24.1 °C 30.08in /  1018.5hPa ENE 0.1mph /  0.2km/h 1mph /  1.6km/h 89% 0.22in /  5.59mm 0 W/m2
20:19 78.7 °F /  25.9 °C 75.4 °F /  24.1 °C 30.08in /  1018.5hPa Calm   1mph /  1.6km/h 89.6% 0.22in /  5.59mm 0 W/m2
20:24 78.7 °F /  25.9 °C 75.5 °F /  24.2 °C 30.08in /  1018.5hPa Calm   1mph /  1.6km/h 90% 0.22in /  5.59mm 0 W/m2
20:29 78.6 °F /  25.9 °C 75.5 °F /  24.2 °C 30.07in /  1018.2hPa Calm   1mph /  1.6km/h 90% 0.22in /  5.59mm 0 W/m2
20:34 78.6 °F /  25.9 °C 75.5 °F /  24.2 °C 30.06in /  1017.8hPa Calm   1mph /  1.6km/h 90.3% 0.22in /  5.59mm 0 W/m2
20:39 78.7 °F /  25.9 °C 75.8 °F /  24.3 °C 30.06in /  1017.8hPa Calm     91% 0.01in /  0.25mm 0 W/m2
20:44 78.7 °F /  25.9 °C 75.9 °F /  24.4 °C 30.06in /  1017.8hPa Calm     91% 0.01in /  0.25mm 0 W/m2
20:49 78.8 °F /  26 °C 75.9 °F /  24.4 °C 30.06in /  1017.8hPa Calm     91% 0.01in /  0.25mm 0 W/m2
20:54 78.8 °F /  26 °C 76.2 °F /  24.6 °C 30.07in /  1018.2hPa Calm     91.7% 0.01in /  0.25mm 0 W/m2
20:59 78.7 °F /  25.9 °C 76.2 °F /  24.6 °C 30.07in /  1018.2hPa Calm     92% 0.01in /  0.25mm 0 W/m2
21:04 78.7 °F /  25.9 °C 76.2 °F /  24.6 °C 30.07in /  1018.2hPa Calm     92% 0.01in /  0.25mm 0 W/m2
21:09 78.7 °F /  25.9 °C 76.2 °F /  24.6 °C 30.07in /  1018.2hPa Calm     92% 0.01in /  0.25mm 0 W/m2
21:14 78.6 °F /  25.9 °C 76.1 °F /  24.5 °C 30.06in /  1017.8hPa Calm     92% 0.01in /  0.25mm 0 W/m2
21:19 78.5 °F /  25.8 °C 76 °F /  24.4 °C 30.07in /  1018.2hPa Calm     92% 0.01in /  0.25mm 0 W/m2
21:24 78.4 °F /  25.8 °C 75.9 °F /  24.4 °C 30.07in /  1018.2hPa Calm     92% 0.01in /  0.25mm 0 W/m2
21:29 78.4 °F /  25.8 °C 75.9 °F /  24.4 °C 30.07in /  1018.2hPa Calm     92% 0.01in /  0.25mm 0 W/m2
21:34 78.4 °F /  25.8 °C 75.9 °F /  24.4 °C 30.06in /  1017.8hPa Calm     92% 0.01in /  0.25mm 0 W/m2
21:39 78.3 °F /  25.7 °C 75.8 °F /  24.3 °C 30.06in /  1017.8hPa Calm     92% 0.01in /  0.25mm 0 W/m2
21:44 78.3 °F /  25.7 °C 76.1 °F /  24.5 °C 30.06in /  1017.8hPa Calm     93% 0.01in /  0.25mm 0 W/m2
21:49 78.2 °F /  25.7 °C 76 °F /  24.4 °C 30.06in /  1017.8hPa Calm     93% 0.01in /  0.25mm 0 W/m2
21:54 78.1 °F /  25.6 °C 75.9 °F /  24.4 °C 30.05in /  1017.5hPa Calm     93% 0.01in /  0.25mm 0 W/m2
21:59 78 °F /  25.6 °C 75.8 °F /  24.3 °C 30.05in /  1017.5hPa Calm     93% 0.01in /  0.25mm 0 W/m2
22:04 77.9 °F /  25.5 °C 75.8 °F /  24.3 °C 30.05in /  1017.5hPa Calm     93% 0.01in /  0.25mm 0 W/m2
22:09 77.8 °F /  25.4 °C 75.6 °F /  24.2 °C 30.05in /  1017.5hPa Calm     93% 0.00in /  0mm 0 W/m2
22:14 77.7 °F /  25.4 °C 75.6 °F /  24.2 °C 30.05in /  1017.5hPa Calm     93% 0.00in /  0mm 0 W/m2
22:19 77.7 °F /  25.4 °C 75.5 °F /  24.2 °C 30.05in /  1017.5hPa Calm     93% 0.00in /  0mm 0 W/m2
22:24 77.6 °F /  25.3 °C 75.4 °F /  24.1 °C 30.05in /  1017.5hPa Calm     93% 0.00in /  0mm 0 W/m2
22:29 77.6 °F /  25.3 °C 75.4 °F /  24.1 °C 30.05in /  1017.5hPa Calm     93% 0.00in /  0mm 0 W/m2
22:34 77.5 °F /  25.3 °C 75.3 °F /  24.1 °C 30.05in /  1017.5hPa Calm     93% 0.00in /  0mm 0 W/m2
22:39 77.4 °F /  25.2 °C 75.3 °F /  24.1 °C 30.04in /  1017.2hPa Calm     93% 0.00in /  0mm 0 W/m2
22:44 77.3 °F /  25.2 °C 75.1 °F /  23.9 °C 30.04in /  1017.2hPa Calm     93% 0.00in /  0mm 0 W/m2
22:49 77.2 °F /  25.1 °C 75 °F /  23.9 °C 30.03in /  1016.8hPa Calm     93% 0.00in /  0mm 0 W/m2
22:54 77.1 °F /  25.1 °C 74.9 °F /  23.8 °C 30.04in /  1017.2hPa Calm     93% 0.00in /  0mm 0 W/m2
22:59 77.1 °F /  25.1 °C 74.9 °F /  23.8 °C 30.04in /  1017.2hPa Calm     93% 0.00in /  0mm 0 W/m2
23:04 77.1 °F /  25.1 °C 75.1 °F /  23.9 °C 30.05in /  1017.5hPa Calm     93.7% 0.00in /  0mm 0 W/m2
23:09 77.1 °F /  25.1 °C 75.2 °F /  24 °C 30.05in /  1017.5hPa North 0.8mph /  1.3km/h 6mph /  9.7km/h 93.8% 0.00in /  0mm 0 W/m2
23:14 76.9 °F /  24.9 °C 74.7 °F /  23.7 °C 30.05in /  1017.5hPa Calm   6mph /  9.7km/h 93% 0.00in /  0mm 0 W/m2
23:19 76.7 °F /  24.8 °C 74.6 °F /  23.7 °C 30.05in /  1017.5hPa Calm   6mph /  9.7km/h 93% 0.00in /  0mm 0 W/m2
23:24 76.6 °F /  24.8 °C 74.6 °F /  23.7 °C 30.05in /  1017.5hPa Calm   6mph /  9.7km/h 93.3% 0.00in /  0mm 0 W/m2
23:29 76.6 °F /  24.8 °C 74.7 °F /  23.7 °C 30.05in /  1017.5hPa Calm   6mph /  9.7km/h 94% 0.00in /  0mm 0 W/m2
23:34 76.5 °F /  24.7 °C 74.7 °F /  23.7 °C 30.05in /  1017.5hPa Calm   6mph /  9.7km/h 94% 0.00in /  0mm 0 W/m2
23:39 76.5 °F /  24.7 °C 74.6 °F /  23.7 °C 30.05in /  1017.5hPa Calm     94% 0.00in /  0mm 0 W/m2
23:44 76.4 °F /  24.7 °C 74.6 °F /  23.7 °C 30.05in /  1017.5hPa Calm     94% 0.00in /  0mm 0 W/m2
23:49 76.4 °F /  24.7 °C 74.5 °F /  23.6 °C 30.05in /  1017.5hPa Calm     94% 0.00in /  0mm 0 W/m2
23:54 76.3 °F /  24.6 °C 74.5 °F /  23.6 °C 30.05in /  1017.5hPa Calm     94% 0.00in /  0mm 0 W/m2
23:59 76.3 °F /  24.6 °C 74.4 °F /  23.6 °C 30.05in /  1017.5hPa Calm     94% 0.00in /  0mm 0 W/m2
Hartford County Weather
Compliments of Weather Underground - 4 mb